createdAt,value
2023-01-13T00:01:26.407Z,19.63
2023-01-13T00:04:29.928Z,17.83
2023-01-13T00:07:33.388Z,19.70
2023-01-13T00:10:38.709Z,19.33
2023-01-13T00:13:42.084Z,19.15
2023-01-13T00:16:45.559Z,19.60
2023-01-13T00:19:49.078Z,19.48
2023-01-13T00:22:52.462Z,17.80
2023-01-13T00:26:00.987Z,18.47
2023-01-13T00:29:04.346Z,19.00
2023-01-13T00:32:07.728Z,19.80
2023-01-13T00:35:11.064Z,19.58
2023-01-13T00:38:14.662Z,18.73
2023-01-13T00:41:26.401Z,19.50
2023-01-13T00:44:29.806Z,18.30
2023-01-13T00:47:33.312Z,18.13
2023-01-13T00:50:36.939Z,19.70
2023-01-13T00:53:43.351Z,20.00
2023-01-13T00:56:46.759Z,20.10
2023-01-13T00:59:50.221Z,19.85
2023-01-13T01:02:53.590Z,19.23
2023-01-13T01:05:58.016Z,19.38
2023-01-13T01:09:01.424Z,21.02
2023-01-13T01:12:05.006Z,20.00
2023-01-13T01:15:10.157Z,19.75
2023-01-13T01:18:13.641Z,19.40
2023-01-13T01:21:18.068Z,20.60
2023-01-13T01:24:21.575Z,18.88
2023-01-13T01:27:24.985Z,18.57
2023-01-13T01:30:28.569Z,19.27
2023-01-13T01:33:32.274Z,20.35
2023-01-13T01:36:36.673Z,19.83
2023-01-13T01:39:40.039Z,19.45
2023-01-13T01:43:01.995Z,17.87
2023-01-13T01:46:05.724Z,17.88
2023-01-13T01:49:31.573Z,20.10
2023-01-13T01:52:39.717Z,20.70
2023-01-13T01:55:43.461Z,17.92
2023-01-13T01:58:51.185Z,18.00
2023-01-13T02:01:54.941Z,17.73
2023-01-13T02:04:59.340Z,17.23
2023-01-13T02:08:04.461Z,17.23
2023-01-13T02:11:28.337Z,16.08
2023-01-13T02:14:34.466Z,16.10
2023-01-13T02:17:52.830Z,14.13
2023-01-13T02:21:00.336Z,14.13
2023-01-13T02:24:56.391Z,14.73
2023-01-13T02:29:09.090Z,15.32
2023-01-13T02:32:40.629Z,14.50
2023-01-13T02:35:59.023Z,14.80
2023-01-13T02:39:14.357Z,15.50
2023-01-13T02:42:59.140Z,15.63
2023-01-13T02:46:28.399Z,13.90
2023-01-13T02:49:38.233Z,12.93
2023-01-13T02:52:43.974Z,11.60
2023-01-13T02:55:51.742Z,9.27
2023-01-13T02:58:57.812Z,7.07
2023-01-13T03:02:04.172Z,7.15
2023-01-13T03:05:08.231Z,6.77
2023-01-13T03:08:23.585Z,6.78
2023-01-13T03:11:34.916Z,7.18
2023-01-13T03:14:44.168Z,7.45
2023-01-13T03:18:06.037Z,6.90
2023-01-13T03:21:14.441Z,7.07
2023-01-13T03:24:37.968Z,8.23
2023-01-13T03:27:50.282Z,7.13
2023-01-13T03:31:09.391Z,8.25
2023-01-13T03:34:17.343Z,7.72
2023-01-13T03:37:26.852Z,7.43
2023-01-13T03:40:36.898Z,8.13
2023-01-13T03:44:09.685Z,11.13
2023-01-13T03:47:47.125Z,9.60
2023-01-13T03:50:57.579Z,7.88
2023-01-13T03:54:07.453Z,7.83
2023-01-13T03:57:14.963Z,8.30
2023-01-13T04:00:21.536Z,9.30
2023-01-13T04:03:54.079Z,12.90
2023-01-13T04:07:15.428Z,11.02
2023-01-13T04:10:35.803Z,7.97
2023-01-13T04:13:43.345Z,10.02
2023-01-13T04:16:48.415Z,10.43
2023-01-13T04:19:51.866Z,9.70
2023-01-13T04:22:55.357Z,10.05
2023-01-13T04:25:58.842Z,9.50
2023-01-13T04:29:02.268Z,9.10
2023-01-13T04:32:06.890Z,8.75
2023-01-13T04:35:10.760Z,8.95
2023-01-13T04:38:20.435Z,9.82
2023-01-13T04:41:23.873Z,8.07
2023-01-13T04:44:27.659Z,8.48
2023-01-13T04:47:31.156Z,22.02
2023-01-13T04:50:34.963Z,9.88
2023-01-13T04:53:38.415Z,9.85
2023-01-13T04:56:42.011Z,10.53
2023-01-13T04:59:45.571Z,11.27
2023-01-13T05:02:52.341Z,12.00
2023-01-13T05:05:55.809Z,11.07
2023-01-13T05:08:59.405Z,10.30
2023-01-13T05:12:21.591Z,11.50
2023-01-13T05:15:43.337Z,11.85
2023-01-13T05:18:46.958Z,12.15
2023-01-13T05:22:09.063Z,11.50
2023-01-13T05:25:21.781Z,10.95
2023-01-13T05:28:25.605Z,11.00
2023-01-13T05:31:29.133Z,10.15
2023-01-13T05:34:33.462Z,12.18
2023-01-13T05:37:36.998Z,11.20
2023-01-13T05:40:59.764Z,10.15
2023-01-13T05:44:03.354Z,8.20
2023-01-13T05:47:06.835Z,10.75
2023-01-13T05:50:11.335Z,10.85
2023-01-13T05:53:15.104Z,11.50
2023-01-13T05:56:18.697Z,11.20
2023-01-13T05:59:22.544Z,12.90
2023-01-13T06:02:26.762Z,11.23
2023-01-13T06:05:30.301Z,11.88
2023-01-13T06:08:33.967Z,10.90
2023-01-13T06:11:37.526Z,10.10
2023-01-13T06:14:41.087Z,10.93
2023-01-13T06:17:44.605Z,13.45
2023-01-13T06:20:48.333Z,13.05
2023-01-13T06:23:51.933Z,10.73
2023-01-13T06:26:55.578Z,8.65
2023-01-13T06:29:59.155Z,9.23
2023-01-13T06:33:08.165Z,10.45
2023-01-13T06:36:16.111Z,10.50
2023-01-13T06:39:25.460Z,8.80
2023-01-13T06:42:51.981Z,9.63
2023-01-13T06:45:56.915Z,8.67
2023-01-13T06:49:00.727Z,8.35
2023-01-13T06:52:04.717Z,9.10
2023-01-13T06:55:08.406Z,10.32
2023-01-13T06:58:12.227Z,11.40
2023-01-13T07:01:16.139Z,9.80
2023-01-13T07:04:21.460Z,11.85
2023-01-13T07:07:24.993Z,11.70
2023-01-13T07:10:28.662Z,9.13
2023-01-13T07:13:53.975Z,9.52
2023-01-13T07:17:01.021Z,8.90
2023-01-13T07:20:04.926Z,8.82
2023-01-13T07:23:08.802Z,8.15
2023-01-13T07:26:12.658Z,8.20
2023-01-13T07:29:16.141Z,9.23
2023-01-13T07:32:19.938Z,8.77
2023-01-13T07:35:23.674Z,8.88
2023-01-13T07:38:28.282Z,16.63
2023-01-13T07:41:50.280Z,29.45
2023-01-13T07:44:55.164Z,11.57
2023-01-13T07:48:00.282Z,11.37
2023-01-13T07:51:09.223Z,9.07
2023-01-13T07:54:12.933Z,11.93
2023-01-13T07:57:16.828Z,10.52
2023-01-13T08:00:37.008Z,10.23
2023-01-13T08:03:44.459Z,9.90
2023-01-13T08:06:49.182Z,9.85
2023-01-13T08:09:54.560Z,9.77
2023-01-13T08:13:17.764Z,9.60
2023-01-13T08:16:21.335Z,8.65
2023-01-13T08:19:24.913Z,16.73
2023-01-13T08:22:28.359Z,10.50
2023-01-13T08:25:32.477Z,10.48
2023-01-13T08:28:36.666Z,9.88
2023-01-13T08:31:40.893Z,9.07
2023-01-13T08:34:44.799Z,9.40
2023-01-13T08:37:48.889Z,8.43
2023-01-13T08:40:52.800Z,7.95
2023-01-13T08:43:57.281Z,8.43
2023-01-13T08:47:01.001Z,10.85
2023-01-13T08:50:05.303Z,7.77
2023-01-13T08:53:08.899Z,8.52
2023-01-13T08:56:14.707Z,8.30
2023-01-13T08:59:19.954Z,7.93
2023-01-13T09:02:25.824Z,7.60
2023-01-13T09:05:29.535Z,7.50
2023-01-13T09:08:33.180Z,7.35
2023-01-13T09:11:59.081Z,7.00
2023-01-13T09:15:04.015Z,7.35
2023-01-13T09:18:07.637Z,8.52
2023-01-13T09:21:12.603Z,7.57
2023-01-13T09:24:17.868Z,7.43
2023-01-13T09:27:23.713Z,6.97
2023-01-13T09:30:27.316Z,6.45
2023-01-13T09:33:49.703Z,8.18
2023-01-13T09:36:54.262Z,11.60
2023-01-13T09:39:57.913Z,12.27
2023-01-13T09:43:42.688Z,8.48
2023-01-13T09:46:57.311Z,8.65
2023-01-13T09:50:15.736Z,6.70
2023-01-13T09:53:43.900Z,10.60
2023-01-13T09:56:49.239Z,7.43
2023-01-13T09:59:52.974Z,5.85
2023-01-13T10:03:21.637Z,5.97
2023-01-13T10:06:35.172Z,5.85
2023-01-13T10:09:51.711Z,6.73
2023-01-13T10:13:14.539Z,8.85
2023-01-13T10:16:42.547Z,7.88
2023-01-13T10:19:54.413Z,6.88
2023-01-13T10:23:24.089Z,7.38
2023-01-13T10:26:56.867Z,6.70
2023-01-13T10:30:11.084Z,6.85
2023-01-13T10:33:20.872Z,6.20
2023-01-13T10:36:24.418Z,6.13
2023-01-13T10:39:28.617Z,7.00
2023-01-13T10:42:32.346Z,7.20
2023-01-13T10:45:35.911Z,7.43
2023-01-13T10:48:42.087Z,7.13
2023-01-13T10:51:52.541Z,7.35
2023-01-13T10:58:49.123Z,7.30
2023-01-13T11:02:25.281Z,11.52
2023-01-13T11:05:33.679Z,8.10
2023-01-13T11:08:46.817Z,16.73
2023-01-13T11:11:55.681Z,12.95
2023-01-13T11:15:03.257Z,9.60
2023-01-13T11:18:25.152Z,7.85
2023-01-13T11:21:35.889Z,8.43
2023-01-13T11:24:50.779Z,8.23
2023-01-13T11:28:01.088Z,11.52
2023-01-13T11:32:06.168Z,14.53
2023-01-13T11:35:23.719Z,9.02
2023-01-13T11:38:38.608Z,8.23
2023-01-13T11:42:12.556Z,9.90
2023-01-13T11:45:37.827Z,9.07
2023-01-13T11:48:44.971Z,9.23
2023-01-13T11:51:59.249Z,9.27
2023-01-13T11:55:22.628Z,9.85
2023-01-13T11:58:53.700Z,9.43
2023-01-13T12:02:17.023Z,11.57
2023-01-13T12:05:28.255Z,9.70
2023-01-13T12:08:50.610Z,10.60
2023-01-13T12:12:22.989Z,10.63
2023-01-13T12:16:03.473Z,9.90
2023-01-13T12:19:25.570Z,9.85
2023-01-13T12:22:35.896Z,10.60
2023-01-13T12:25:47.476Z,12.45
2023-01-13T12:29:19.227Z,9.98
2023-01-13T12:32:36.610Z,12.88
2023-01-13T12:35:47.811Z,10.63
2023-01-13T12:39:15.391Z,12.60
2023-01-13T12:43:12.999Z,11.88
2023-01-13T12:46:22.730Z,10.50
2023-01-13T12:49:34.948Z,12.77
2023-01-13T12:52:45.807Z,11.57
2023-01-13T12:55:53.390Z,15.03
2023-01-13T12:59:32.396Z,15.05
2023-01-13T13:03:00.490Z,15.63
2023-01-13T13:06:18.033Z,13.70
2023-01-13T13:09:35.782Z,14.40
2023-01-13T13:13:00.872Z,13.23
2023-01-13T13:16:44.974Z,12.40
2023-01-13T13:19:50.075Z,16.70
2023-01-13T13:23:01.551Z,16.52
2023-01-13T13:26:26.541Z,14.63
2023-01-13T13:29:53.369Z,17.23
2023-01-13T13:33:13.356Z,15.80
2023-01-13T13:36:46.554Z,14.10
2023-01-13T13:40:09.017Z,14.93
2023-01-13T13:43:34.619Z,14.88
2023-01-13T13:46:48.848Z,17.73
2023-01-13T13:49:54.682Z,18.73
2023-01-13T13:53:08.855Z,14.18
2023-01-13T13:56:24.202Z,13.88
2023-01-13T13:59:33.846Z,14.05
2023-01-13T14:02:38.957Z,13.67
2023-01-13T14:05:54.476Z,15.60
2023-01-13T14:08:58.196Z,17.52
2023-01-13T14:12:15.211Z,20.90
2023-01-13T14:15:33.203Z,16.63
2023-01-13T14:18:46.394Z,23.27
2023-01-13T14:21:51.840Z,19.80
2023-01-13T14:24:57.833Z,18.88
2023-01-13T14:28:24.913Z,18.77
2023-01-13T14:31:29.869Z,18.88
2023-01-13T14:34:34.504Z,18.73
2023-01-13T14:37:40.841Z,21.23
2023-01-13T14:40:46.585Z,18.20
2023-01-13T14:43:56.598Z,15.38
2023-01-13T14:47:04.424Z,15.70
2023-01-13T14:50:21.005Z,15.37
2023-01-13T14:53:40.890Z,16.95
2023-01-13T14:56:47.466Z,16.58
2023-01-13T15:00:00.167Z,21.55
2023-01-13T15:03:09.063Z,20.55
2023-01-13T15:06:27.830Z,23.33
2023-01-13T15:09:41.374Z,26.98
2023-01-13T15:12:44.939Z,26.20
2023-01-13T15:15:51.713Z,25.73
2023-01-13T15:18:56.141Z,24.70
2023-01-13T15:21:59.643Z,21.23
2023-01-13T15:25:03.148Z,21.10
2023-01-13T15:28:08.081Z,17.63
2023-01-13T15:31:11.804Z,15.60
2023-01-13T15:34:15.287Z,13.07
2023-01-13T15:37:19.741Z,12.07
2023-01-13T15:40:33.346Z,12.85
2023-01-13T15:43:55.041Z,13.32
2023-01-13T15:47:01.739Z,21.70
2023-01-13T15:50:05.530Z,20.25
2023-01-13T15:53:14.566Z,28.17
2023-01-13T15:56:26.783Z,33.55
2023-01-13T15:59:30.230Z,28.83
2023-01-13T16:02:33.783Z,26.65
2023-01-13T16:05:37.254Z,24.80
2023-01-13T16:08:40.756Z,23.23
2023-01-13T16:11:44.537Z,26.98
2023-01-13T16:14:48.135Z,32.50
2023-01-13T16:18:00.561Z,29.80
2023-01-13T16:21:04.163Z,33.00
2023-01-13T16:24:07.714Z,33.87
2023-01-13T16:27:25.513Z,34.72
2023-01-13T16:30:33.762Z,39.97
2023-01-13T16:33:37.523Z,42.13
2023-01-13T16:36:40.979Z,53.08
2023-01-13T16:39:44.525Z,56.43
2023-01-13T16:42:48.097Z,48.40
2023-01-13T16:45:51.707Z,49.38
2023-01-13T16:48:57.917Z,40.83
2023-01-13T16:52:01.483Z,26.10
2023-01-13T16:55:05.173Z,20.40
2023-01-13T16:58:17.585Z,18.20
2023-01-13T17:01:31.975Z,15.05
2023-01-13T17:04:35.539Z,12.60
2023-01-13T17:07:40.200Z,12.68
2023-01-13T17:10:47.980Z,16.20
2023-01-13T17:13:51.701Z,17.55
2023-01-13T17:16:57.231Z,24.63
2023-01-13T17:20:01.000Z,25.27
2023-01-13T17:23:04.552Z,15.50
2023-01-13T17:26:08.586Z,22.57
2023-01-13T17:29:17.779Z,27.85
2023-01-13T17:32:23.941Z,17.00
2023-01-13T17:35:27.642Z,12.98
2023-01-13T17:38:31.362Z,11.48
2023-01-13T17:41:34.867Z,12.83
2023-01-13T17:44:39.105Z,12.10
2023-01-13T17:47:42.567Z,15.68
2023-01-13T17:50:53.479Z,14.63
2023-01-13T17:53:57.116Z,18.00
2023-01-13T17:57:00.628Z,18.93
2023-01-13T18:00:05.735Z,14.57
2023-01-13T18:03:17.184Z,13.73
2023-01-13T18:06:23.462Z,13.10
2023-01-13T18:09:27.088Z,15.32
2023-01-13T18:12:30.509Z,13.30
2023-01-13T18:15:34.080Z,12.38
2023-01-13T18:18:39.451Z,12.60
2023-01-13T18:22:02.085Z,11.10
2023-01-13T18:25:24.881Z,11.60
2023-01-13T18:28:28.457Z,10.53
2023-01-13T18:31:32.468Z,15.68
2023-01-13T18:34:37.103Z,20.67
2023-01-13T18:37:42.482Z,18.60
2023-01-13T18:40:48.579Z,15.63
2023-01-13T18:43:52.411Z,12.57
2023-01-13T18:46:56.177Z,18.90
2023-01-13T18:49:59.983Z,22.92
2023-01-13T18:53:03.590Z,19.67
2023-01-13T18:56:14.255Z,21.27
2023-01-13T18:59:18.473Z,26.30
2023-01-13T19:02:23.608Z,24.80
2023-01-13T19:05:27.093Z,44.30
2023-01-13T19:08:33.198Z,37.22
2023-01-13T19:11:37.053Z,38.53
2023-01-13T19:14:42.454Z,36.23
2023-01-13T19:17:46.787Z,40.47
2023-01-13T19:20:53.654Z,34.70
2023-01-13T19:23:57.524Z,29.63
2023-01-13T19:27:01.274Z,32.90
2023-01-13T19:30:06.095Z,37.20
2023-01-13T19:33:10.867Z,38.80
2023-01-13T19:36:14.353Z,35.85
2023-01-13T19:39:18.025Z,34.22
2023-01-13T19:42:40.408Z,30.48
2023-01-13T19:45:45.013Z,34.63
2023-01-13T19:48:48.725Z,35.53
2023-01-13T19:51:52.463Z,34.60
2023-01-13T19:54:56.944Z,32.33
2023-01-13T19:58:00.972Z,32.35
2023-01-13T20:01:10.291Z,33.47
2023-01-13T20:04:14.623Z,32.35
2023-01-13T20:07:18.049Z,32.83
2023-01-13T20:10:25.058Z,26.52
2023-01-13T20:13:28.618Z,24.05
2023-01-13T20:16:33.892Z,22.60
2023-01-13T20:19:37.429Z,21.65
2023-01-13T20:22:41.024Z,22.42
2023-01-13T20:25:44.628Z,22.10
2023-01-13T20:28:48.884Z,22.77
2023-01-13T20:31:52.483Z,24.43
2023-01-13T20:34:56.090Z,24.98
2023-01-13T20:37:59.594Z,22.98
2023-01-13T20:41:25.781Z,21.83
2023-01-13T20:44:29.709Z,21.77
2023-01-13T20:47:33.306Z,22.70
2023-01-13T20:50:37.427Z,19.35
2023-01-13T20:53:41.770Z,18.52
2023-01-13T20:56:45.754Z,17.90
2023-01-13T20:59:49.244Z,18.20
2023-01-13T21:02:53.257Z,17.97
2023-01-13T21:05:58.685Z,18.92
2023-01-13T21:09:02.279Z,19.63
2023-01-13T21:12:25.218Z,19.52
2023-01-13T21:15:28.825Z,19.65
2023-01-13T21:18:50.893Z,17.90
2023-01-13T21:21:54.455Z,18.83
2023-01-13T21:24:58.702Z,17.25
2023-01-13T21:28:10.438Z,17.38
2023-01-13T21:31:14.003Z,16.90
2023-01-13T21:34:17.518Z,16.53
2023-01-13T21:37:21.069Z,15.65
2023-01-13T21:40:24.639Z,16.10
2023-01-13T21:43:47.202Z,14.73
2023-01-13T21:47:08.949Z,15.65
2023-01-13T21:50:15.577Z,15.17
2023-01-13T21:53:19.048Z,14.82
2023-01-13T21:56:23.180Z,15.50
2023-01-13T21:59:26.655Z,14.82
2023-01-13T22:02:32.231Z,16.52
2023-01-13T22:05:36.211Z,15.43
2023-01-13T22:08:39.668Z,14.80
2023-01-13T22:11:43.077Z,16.50
2023-01-13T22:14:47.250Z,16.17
2023-01-13T22:17:55.252Z,15.52
2023-01-13T22:21:01.763Z,15.57
2023-01-13T22:24:05.441Z,15.98
2023-01-13T22:27:12.788Z,15.80
2023-01-13T22:30:25.256Z,14.52
2023-01-13T22:33:28.706Z,15.98
2023-01-13T22:36:32.219Z,15.63
2023-01-13T22:39:36.522Z,15.50
2023-01-13T22:42:41.995Z,15.43
2023-01-13T22:45:45.505Z,20.92
2023-01-13T22:48:51.982Z,19.13
2023-01-13T22:51:55.458Z,17.97
2023-01-13T22:55:00.893Z,17.38
2023-01-13T22:58:04.426Z,16.73
2023-01-13T23:01:16.410Z,17.30
2023-01-13T23:04:20.073Z,23.85
2023-01-13T23:07:23.671Z,24.10
2023-01-13T23:10:28.271Z,22.58
2023-01-13T23:13:32.390Z,26.65
2023-01-13T23:16:38.409Z,17.40
2023-01-13T23:19:41.815Z,16.65
2023-01-13T23:22:45.354Z,15.93
2023-01-13T23:25:55.459Z,16.23
2023-01-13T23:29:04.578Z,16.38
2023-01-13T23:32:08.869Z,17.48
2023-01-13T23:35:12.450Z,16.73
2023-01-13T23:38:15.910Z,17.33
2023-01-13T23:41:22.152Z,17.38
2023-01-13T23:44:25.770Z,18.65
2023-01-13T23:47:29.429Z,18.60
2023-01-13T23:50:33.796Z,18.25
2023-01-13T23:53:40.514Z,17.00
2023-01-13T23:56:44.034Z,17.33
2023-01-13T23:59:47.504Z,17.85
